Time;durP1;ratioP1;P1;durP2;ratioP2;P2;SDS_P1;SDS_P2;PMS_P1;PMS_P2;Temp;Humidity;BMP_temperature;BMP_pressure;BME280_temperature;BME280_humidity;BME280_pressure;Samples;Min_cycle;Max_cycle;Signal;HPM_P1;HPM_P2
2023/07/30 00:00:46;;;;;;;;;;;;;;;;;;6253220;28;19909;-85
2023/07/30 00:03:46;;;;;;;;;;;;;;;;;;6255140;28;19917;-85
2023/07/30 00:06:46;;;;;;;;;;;;;;;;;;6249306;28;19909;-87
2023/07/30 00:09:46;;;;;;;;;;;;;;;;;;6249097;28;19909;-88
2023/07/30 00:12:46;;;;;;;;;;;;;;;;;;6250050;28;19905;-86
2023/07/30 00:15:47;;;;;;;;;;;;;;;;;;6247806;28;19944;-85
2023/07/30 00:18:47;;;;;;;;;;;;;;;;;;6249092;28;19929;-82
2023/07/30 00:21:47;;;;;;;;;;;;;;;;;;6243269;28;19913;-83
2023/07/30 00:24:47;;;;;;;;;;;;;;;;;;6247573;28;20007;-84
2023/07/30 00:27:47;;;;;;;;;;;;;;;;;;6253157;28;20389;-85
2023/07/30 00:30:47;;;;;;;;;;;;;;;;;;6240485;28;19912;-84
2023/07/30 00:33:47;;;;;;;;;;;;;;;;;;6247198;28;19905;-84
2023/07/30 00:36:47;;;;;;;;;;;;;;;;;;6252313;28;19936;-85
2023/07/30 00:39:47;;;;;;;;;;;;;;;;;;6261954;28;19948;-86
2023/07/30 00:42:47;;;;;;;;;;;;;;;;;;6251298;28;19947;-89
2023/07/30 00:45:47;;;;;;;;;;;;;;;;;;6246192;28;19905;-87
2023/07/30 00:48:48;;;;;;;;;;;;;;;;;;6236903;28;19914;-85
2023/07/30 00:51:49;;;;;;;;;;;;;;;;;;6244425;28;19928;-87
2023/07/30 00:54:49;;;;;;;;;;;;;;;;;;6241850;28;19999;-86
2023/07/30 00:57:49;;;;;;;;;;;;;;;;;;6243530;28;20377;-88
2023/07/30 01:00:49;;;;;;;;;;;;;;;;;;6245285;28;19912;-89
2023/07/30 01:03:50;;;;;;;;;;;;;;;;;;6243337;28;19913;-88
2023/07/30 01:06:50;;;;;;;;;;;;;;;;;;6248370;28;19909;-88
2023/07/30 01:09:50;;;;;;;;;;;;;;;;;;6246351;28;19909;-88
2023/07/30 01:12:50;;;;;;;;;;;;;;;;;;6247041;28;20382;-85
2023/07/30 01:15:50;;;;;;;;;;;;;;;;;;6246338;28;20008;-87
2023/07/30 01:18:50;;;;;;;;;;;;;;;;;;6251374;28;19916;-87
2023/07/30 01:21:50;;;;;;;;;;;;;;;;;;6253712;28;19909;-87
2023/07/30 01:24:50;;;;;;;;;;;;;;;;;;6251606;28;19966;-86
2023/07/30 01:27:50;;;;;;;;;;;;;;;;;;6254069;28;19909;-88
2023/07/30 01:30:50;;;;;;;;;;;;;;;;;;6245048;28;19913;-85
2023/07/30 01:33:50;;;;;;;;;;;;;;;;;;6237424;28;19909;-86
2023/07/30 01:36:51;;;;;;;;;;;;;;;;;;6237960;28;20056;-88
2023/07/30 01:39:51;;;;;;;;;;;;;;;;;;6238110;28;19909;-85
2023/07/30 01:42:51;;;;;;;;;;;;;;;;;;6244969;28;19908;-83
2023/07/30 01:45:51;;;;;;;;;;;;;;;;;;6237404;28;19962;-83
2023/07/30 01:48:51;;;;;;;;;;;;;;;;;;6239779;28;20263;-82
2023/07/30 01:51:51;;;;;;;;;;;;;;;;;;6243501;28;19931;-83
2023/07/30 01:54:51;;;;;;;;;;;;;;;;;;6242815;28;20370;-82
2023/07/30 01:57:52;;;;;;;;;;;;;;;;;;6232753;28;19920;-82
2023/07/30 02:00:52;;;;;;;;;;;;;;;;;;6241340;28;19913;-82
2023/07/30 02:03:52;;;;;;;;;;;;;;;;;;6240786;28;19920;-82
2023/07/30 02:06:52;;;;;;;;;;;;;;;;;;6242214;28;19916;-73
2023/07/30 02:09:52;;;;;;;;;;;;;;;;;;6236877;28;19917;-74
2023/07/30 02:12:52;;;;;;;;;;;;;;;;;;6243333;28;19913;-73
2023/07/30 02:15:52;;;;;;;;;;;;;;;;;;6235913;28;19956;-73
2023/07/30 02:18:52;;;;;;;;;;;;;;;;;;6238676;28;19909;-73
2023/07/30 02:21:52;;;;;;;;;;;;;;;;;;6239559;28;19945;-73
2023/07/30 02:24:53;;;;;;;;;;;;;;;;;;6240413;28;19927;-73
2023/07/30 02:27:53;;;;;;;;;;;;;;;;;;6243802;28;19905;-73
2023/07/30 02:30:53;;;;;;;;;;;;;;;;;;6242399;28;19909;-74
2023/07/30 02:33:53;;;;;;;;;;;;;;;;;;6242034;28;19912;-74
2023/07/30 02:36:53;;;;;;;;;;;;;;;;;;6243299;28;19912;-74
2023/07/30 02:39:53;;;;;;;;;;;;;;;;;;6242265;28;20004;-74
2023/07/30 02:42:54;;;;;;;;;;;;;;;;;;6233857;28;19909;-74
2023/07/30 02:45:54;;;;;;;;;;;;;;;;;;6242631;28;20628;-73
2023/07/30 02:48:54;;;;;;;;;;;;;;;;;;6240546;28;19991;-74
2023/07/30 02:51:54;;;;;;;;;;;;;;;;;;6242045;28;19916;-74
2023/07/30 02:54:54;;;;;;;;;;;;;;;;;;6246553;28;19962;-74
2023/07/30 02:57:54;;;;;;;;;;;;;;;;;;6247539;28;19909;-74
2023/07/30 03:00:54;;;;;;;;;;;;;;;;;;6247333;28;19909;-74
2023/07/30 03:03:54;;;;;;;;;;;;;;;;;;6246503;28;19924;-76
2023/07/30 03:06:54;;;;;;;;;;;;;;;;;;6246542;28;19932;-75
2023/07/30 03:09:55;;;;;;;;;;;;;;;;;;6246522;28;20360;-73
2023/07/30 03:12:55;;;;;;;;;;;;;;;;;;6246633;28;19912;-73
2023/07/30 03:15:55;;;;;;;;;;;;;;;;;;6246953;28;20390;-73
2023/07/30 03:18:55;;;;;;;;;;;;;;;;;;6243901;28;19909;-73
2023/07/30 03:21:55;;;;;;;;;;;;;;;;;;6246949;28;20359;-73
2023/07/30 03:24:55;;;;;;;;;;;;;;;;;;6245879;28;19913;-84
2023/07/30 03:27:56;;;;;;;;;;;;;;;;;;6253840;28;19913;-83
2023/07/30 03:30:56;;;;;;;;;;;;;;;;;;6247025;28;20007;-84
2023/07/30 03:33:56;;;;;;;;;;;;;;;;;;6247736;28;20385;-84
2023/07/30 03:36:56;;;;;;;;;;;;;;;;;;6241280;28;19909;-74
2023/07/30 03:39:56;;;;;;;;;;;;;;;;;;6237683;28;19925;-74
2023/07/30 03:42:56;;;;;;;;;;;;;;;;;;6251718;28;19917;-74
2023/07/30 03:45:56;;;;;;;;;;;;;;;;;;6244377;28;19909;-73
2023/07/30 03:48:56;;;;;;;;;;;;;;;;;;6242455;28;19917;-74
2023/07/30 03:51:56;;;;;;;;;;;;;;;;;;6246174;28;19931;-74
2023/07/30 03:54:57;;;;;;;;;;;;;;;;;;6243292;28;20278;-74
2023/07/30 03:57:58;;;;;;;;;;;;;;;;;;6245669;28;19905;-74
2023/07/30 04:00:58;;;;;;;;;;;;;;;;;;6241991;28;19982;-73
2023/07/30 04:03:58;;;;;;;;;;;;;;;;;;6237825;28;19917;-74
2023/07/30 04:06:58;;;;;;;;;;;;;;;;;;6237841;28;19919;-74
2023/07/30 04:09:58;;;;;;;;;;;;;;;;;;6241222;28;19912;-74
2023/07/30 04:12:58;;;;;;;;;;;;;;;;;;6233064;28;20323;-74
2023/07/30 04:15:58;;;;;;;;;;;;;;;;;;6246814;28;19913;-85
2023/07/30 04:18:59;;;;;;;;;;;;;;;;;;6248090;28;19913;-85
2023/07/30 04:21:59;;;;;;;;;;;;;;;;;;6250301;28;20232;-86
2023/07/30 04:24:59;;;;;;;;;;;;;;;;;;6240444;28;19944;-73
2023/07/30 04:27:59;;;;;;;;;;;;;;;;;;6244325;28;19913;-73
2023/07/30 04:30:59;;;;;;;;;;;;;;;;;;6245126;28;20356;-74
2023/07/30 04:33:59;;;;;;;;;;;;;;;;;;6245248;28;19956;-74
2023/07/30 04:36:59;;;;;;;;;;;;;;;;;;6235295;28;19916;-74
2023/07/30 04:39:59;;;;;;;;;;;;;;;;;;6231669;28;20418;-74
2023/07/30 04:42:59;;;;;;;;;;;;;;;;;;6243980;28;19987;-74
2023/07/30 04:46:00;;;;;;;;;;;;;;;;;;6239695;28;19905;-83
2023/07/30 04:49:00;;;;;;;;;;;;;;;;;;6241984;28;19924;-83
2023/07/30 04:52:00;;;;;;;;;;;;;;;;;;6241491;28;19913;-83
2023/07/30 04:55:00;;;;;;;;;;;;;;;;;;6239379;28;19963;-74
2023/07/30 04:58:00;;;;;;;;;;;;;;;;;;6242120;28;19912;-74
2023/07/30 05:01:00;;;;;;;;;;;;;;;;;;6238490;28;19992;-73
2023/07/30 05:04:00;;;;;;;;;;;;;;;;;;6235899;28;20383;-74
2023/07/30 05:07:00;;;;;;;;;;;;;;;;;;6243742;28;19909;-73
2023/07/30 05:10:00;;;;;;;;;;;;;;;;;;6239973;28;20003;-73
2023/07/30 05:13:01;;;;;;;;;;;;;;;;;;6243010;28;19909;-73
2023/07/30 05:16:01;;;;;;;;;;;;;;;;;;6242882;28;19909;-83
2023/07/30 05:19:01;;;;;;;;;;;;;;;;;;6227227;28;20387;-81
2023/07/30 05:22:01;;;;;;;;;;;;;;;;;;6233931;28;19958;-83
2023/07/30 05:25:02;;;;;;;;;;;;;;;;;;6239356;28;20359;-81
2023/07/30 05:28:02;;;;;;;;;;;;;;;;;;6239433;28;19913;-84
2023/07/30 05:31:02;;;;;;;;;;;;;;;;;;6240500;28;19928;-86
2023/07/30 05:34:02;;;;;;;;;;;;;;;;;;6240890;28;20087;-85
2023/07/30 05:37:02;;;;;;;;;;;;;;;;;;6242333;28;19955;-84
2023/07/30 05:40:03;;;;;;;;;;;;;;;;;;6242001;28;19932;-86
2023/07/30 05:43:04;;;;;;;;;;;;;;;;;;6242558;28;19952;-86
2023/07/30 05:46:04;;;;;;;;;;;;;;;;;;6234150;28;20306;-86
2023/07/30 05:49:04;;;;;;;;;;;;;;;;;;6243590;28;19909;-85
2023/07/30 05:52:04;;;;;;;;;;;;;;;;;;6240501;28;19944;-86
2023/07/30 05:55:04;;;;;;;;;;;;;;;;;;6240398;28;19912;-75
2023/07/30 05:58:04;;;;;;;;;;;;;;;;;;6242652;28;19913;-75
2023/07/30 06:01:04;;;;;;;;;;;;;;;;;;6242950;28;19940;-75
2023/07/30 06:04:04;;;;;;;;;;;;;;;;;;6234726;28;19940;-75
2023/07/30 06:07:06;;;;;;;;;;;;;;;;;;6232934;28;19913;-87
2023/07/30 06:10:06;;;;;;;;;;;;;;;;;;6236561;28;20520;-87
2023/07/30 06:13:06;;;;;;;;;;;;;;;;;;6237264;28;19913;-87
2023/07/30 06:16:06;;;;;;;;;;;;;;;;;;6240588;28;19922;-87
2023/07/30 06:19:06;;;;;;;;;;;;;;;;;;6234723;28;20363;-84
2023/07/30 06:22:06;;;;;;;;;;;;;;;;;;6242892;28;19909;-83
2023/07/30 06:25:06;;;;;;;;;;;;;;;;;;6234980;28;20425;-85
2023/07/30 06:28:06;;;;;;;;;;;;;;;;;;6244361;28;20273;-84
2023/07/30 06:31:06;;;;;;;;;;;;;;;;;;6238449;28;19920;-84
2023/07/30 06:34:07;;;;;;;;;;;;;;;;;;6238969;28;20004;-84
2023/07/30 06:37:07;;;;;;;;;;;;;;;;;;6236924;28;20701;-85
2023/07/30 06:40:08;;;;;;;;;;;;;;;;;;6246229;28;19952;-85
2023/07/30 06:43:08;;;;;;;;;;;;;;;;;;6246028;28;19916;-84
2023/07/30 06:46:08;;;;;;;;;;;;;;;;;;6247410;28;19913;-74
2023/07/30 06:49:08;;;;;;;;;;;;;;;;;;6246057;28;19916;-74
2023/07/30 06:52:08;;;;;;;;;;;;;;;;;;6243161;28;20003;-74
2023/07/30 06:55:08;;;;;;;;;;;;;;;;;;6245351;28;19948;-76
2023/07/30 06:58:09;;;;;;;;;;;;;;;;;;6233581;28;19917;-75
2023/07/30 07:01:09;;;;;;;;;;;;;;;;;;6234425;28;19913;-74
2023/07/30 07:04:09;;;;;;;;;;;;;;;;;;6237162;28;19917;-74
2023/07/30 07:07:09;;;;;;;;;;;;;;;;;;6244551;28;19932;-74
2023/07/30 07:10:10;;;;;;;;;;;;;;;;;;6241437;28;19905;-74
2023/07/30 07:13:10;;;;;;;;;;;;;;;;;;6237712;28;19954;-74
2023/07/30 07:16:10;;;;;;;;;;;;;;;;;;6243388;28;19905;-75
2023/07/30 07:19:11;;;;;;;;;;;;;;;;;;6240856;28;19912;-74
2023/07/30 07:22:11;;;;;;;;;;;;;;;;;;6247077;28;19944;-75
2023/07/30 07:25:11;;;;;;;;;;;;;;;;;;6246572;28;19909;-74
2023/07/30 07:28:11;;;;;;;;;;;;;;;;;;6247472;28;19952;-74
2023/07/30 07:31:11;;;;;;;;;;;;;;;;;;6241600;28;19982;-74
2023/07/30 07:34:11;;;;;;;;;;;;;;;;;;6240002;28;19955;-75
2023/07/30 07:37:14;;;;;;;;;;;;;;;;;;6238414;28;19909;-74
2023/07/30 07:40:15;;;;;;;;;;;;;;;;;;6244404;28;19913;-74
2023/07/30 07:43:15;;;;;;;;;;;;;;;;;;6239786;28;19932;-75
2023/07/30 07:46:15;;;;;;;;;;;;;;;;;;6238493;28;19909;-82
2023/07/30 07:49:16;;;;;;;;;;;;;;;;;;6244453;28;19909;-83
2023/07/30 07:52:17;;;;;;;;;;;;;;;;;;6242509;28;19966;-84
2023/07/30 07:55:17;;;;;;;;;;;;;;;;;;6241984;28;19951;-83
2023/07/30 07:58:17;;;;;;;;;;;;;;;;;;6250465;28;19987;-85
2023/07/30 08:01:17;;;;;;;;;;;;;;;;;;6242942;28;19928;-82
2023/07/30 08:04:18;;;;;;;;;;;;;;;;;;6238872;28;19959;-83
2023/07/30 08:07:18;;;;;;;;;;;;;;;;;;6236514;28;19913;-84
2023/07/30 08:10:18;;;;;;;;;;;;;;;;;;6240889;28;20379;-86
2023/07/30 08:13:18;;;;;;;;;;;;;;;;;;6233379;28;20492;-87
2023/07/30 08:16:19;;;;;;;;;;;;;;;;;;6241331;28;19963;-85
2023/07/30 08:19:19;;;;;;;;;;;;;;;;;;6230828;28;19935;-85
2023/07/30 08:22:19;;;;;;;;;;;;;;;;;;6241601;28;19913;-83
2023/07/30 08:25:19;;;;;;;;;;;;;;;;;;6246678;28;19915;-80
2023/07/30 08:28:20;;;;;;;;;;;;;;;;;;6241507;28;19920;-82
2023/07/30 08:31:20;;;;;;;;;;;;;;;;;;6242779;28;19916;-81
2023/07/30 08:34:20;;;;;;;;;;;;;;;;;;6235174;28;19909;-82
2023/07/30 08:37:20;;;;;;;;;;;;;;;;;;6240831;28;19909;-81
2023/07/30 08:40:20;;;;;;;;;;;;;;;;;;6240293;28;19916;-80
2023/07/30 08:43:20;;;;;;;;;;;;;;;;;;6244341;28;19917;-82
2023/07/30 08:46:20;;;;;;;;;;;;;;;;;;6244505;28;19913;-83
2023/07/30 08:49:20;;;;;;;;;;;;;;;;;;6244082;28;19909;-82
2023/07/30 08:52:20;;;;;;;;;;;;;;;;;;6241187;28;19916;-81
2023/07/30 08:55:21;;;;;;;;;;;;;;;;;;6239345;28;19913;-84
2023/07/30 08:58:21;;;;;;;;;;;;;;;;;;6243590;28;20055;-84
2023/07/30 09:01:21;;;;;;;;;;;;;;;;;;6240138;28;19909;-83
2023/07/30 09:04:21;;;;;;;;;;;;;;;;;;6242680;28;19917;-87
2023/07/30 09:07:21;;;;;;;;;;;;;;;;;;6237184;28;19905;-84
2023/07/30 09:10:21;;;;;;;;;;;;;;;;;;6242842;28;19917;-85
2023/07/30 09:13:23;;;;;;;;;;;;;;;;;;6242225;28;19909;-84
2023/07/30 09:16:23;;;;;;;;;;;;;;;;;;6241793;28;19913;-73
2023/07/30 09:19:23;;;;;;;;;;;;;;;;;;6243273;28;19951;-74
2023/07/30 09:22:23;;;;;;;;;;;;;;;;;;6236721;28;19917;-74
2023/07/30 09:25:23;;;;;;;;;;;;;;;;;;6242923;28;19928;-85
2023/07/30 09:28:23;;;;;;;;;;;;;;;;;;6240710;28;19913;-82
2023/07/30 09:31:23;;;;;;;;;;;;;;;;;;6233521;28;19968;-86
2023/07/30 09:34:24;;;;;;;;;;;;;;;;;;6232314;28;20264;-85
2023/07/30 09:37:24;;;;;;;;;;;;;;;;;;6237779;28;19952;-85
2023/07/30 09:40:24;;;;;;;;;;;;;;;;;;6232784;28;19909;-85
2023/07/30 09:43:24;;;;;;;;;;;;;;;;;;6239815;28;19917;-86
2023/07/30 09:46:24;;;;;;;;;;;;;;;;;;6240774;28;20386;-84
2023/07/30 09:49:24;;;;;;;;;;;;;;;;;;6233774;28;20015;-84
2023/07/30 09:52:24;;;;;;;;;;;;;;;;;;6237853;28;19916;-85
2023/07/30 09:55:24;;;;;;;;;;;;;;;;;;6232412;28;19909;-80
2023/07/30 09:58:24;;;;;;;;;;;;;;;;;;6242772;28;19966;-82
2023/07/30 10:01:24;;;;;;;;;;;;;;;;;;6240517;28;19912;-81
2023/07/30 10:04:25;;;;;;;;;;;;;;;;;;6235952;28;20367;-82
2023/07/30 10:07:25;;;;;;;;;;;;;;;;;;6235622;28;19917;-83
2023/07/30 10:10:25;;;;;;;;;;;;;;;;;;6240005;28;19917;-85
2023/07/30 10:13:26;;;;;;;;;;;;;;;;;;6242773;28;20359;-85
2023/07/30 10:16:27;;;;;;;;;;;;;;;;;;6238304;28;19909;-75
2023/07/30 10:19:27;;;;;;;;;;;;;;;;;;6234679;28;20437;-74
2023/07/30 10:22:27;;;;;;;;;;;;;;;;;;6242767;28;20003;-74
2023/07/30 10:25:28;;;;;;;;;;;;;;;;;;6242939;28;19912;-74
2023/07/30 10:28:28;;;;;;;;;;;;;;;;;;6236998;28;19948;-74
2023/07/30 10:31:28;;;;;;;;;;;;;;;;;;6241258;28;19909;-74
2023/07/30 10:34:31;;;;;;;;;;;;;;;;;;6242920;28;19905;-86
2023/07/30 10:37:31;;;;;;;;;;;;;;;;;;6241737;28;19909;-85
2023/07/30 10:40:31;;;;;;;;;;;;;;;;;;6234829;28;19917;-84
2023/07/30 10:43:31;;;;;;;;;;;;;;;;;;6232081;28;20403;-83
2023/07/30 10:46:32;;;;;;;;;;;;;;;;;;6242349;28;19923;-85
2023/07/30 10:49:32;;;;;;;;;;;;;;;;;;6229937;28;19956;-85
2023/07/30 10:52:32;;;;;;;;;;;;;;;;;;6238970;28;20003;-86
2023/07/30 10:55:33;;;;;;;;;;;;;;;;;;6239625;28;19916;-86
2023/07/30 10:58:33;;;;;;;;;;;;;;;;;;6241349;28;20291;-86
2023/07/30 11:01:33;;;;;;;;;;;;;;;;;;6241997;28;20378;-84
2023/07/30 11:04:33;;;;;;;;;;;;;;;;;;6242434;28;19991;-84
2023/07/30 11:07:34;;;;;;;;;;;;;;;;;;6241664;28;19917;-85
2023/07/30 11:10:34;;;;;;;;;;;;;;;;;;6241171;28;19939;-81
2023/07/30 11:13:34;;;;;;;;;;;;;;;;;;6241656;28;19952;-81
2023/07/30 11:16:34;;;;;;;;;;;;;;;;;;6244716;28;19915;-84
2023/07/30 11:19:34;;;;;;;;;;;;;;;;;;6240210;28;19913;-83
2023/07/30 11:22:34;;;;;;;;;;;;;;;;;;6245485;28;19909;-84
2023/07/30 11:25:34;;;;;;;;;;;;;;;;;;6246954;28;19905;-83
2023/07/30 11:28:35;;;;;;;;;;;;;;;;;;6246622;28;20290;-85
2023/07/30 11:31:35;;;;;;;;;;;;;;;;;;6244906;28;19999;-85
2023/07/30 11:34:38;;;;;;;;;;;;;;;;;;6245086;28;19916;-85
2023/07/30 11:37:40;;;;;;;;;;;;;;;;;;6246103;28;19905;-85
2023/07/30 11:40:40;;;;;;;;;;;;;;;;;;6243047;28;20271;-84
2023/07/30 11:43:40;;;;;;;;;;;;;;;;;;6243405;28;20390;-83
2023/07/30 11:46:40;;;;;;;;;;;;;;;;;;6247018;28;19916;-84
2023/07/30 11:49:40;;;;;;;;;;;;;;;;;;6246655;28;19909;-85
2023/07/30 11:52:40;;;;;;;;;;;;;;;;;;6246003;28;19917;-86
2023/07/30 11:55:40;;;;;;;;;;;;;;;;;;6246596;28;19992;-85
2023/07/30 11:58:40;;;;;;;;;;;;;;;;;;6245924;28;19909;-84
2023/07/30 12:01:40;;;;;;;;;;;;;;;;;;6242353;28;19909;-85
2023/07/30 12:04:41;;;;;;;;;;;;;;;;;;6246240;28;20390;-86
2023/07/30 12:07:44;;;;;;;;;;;;;;;;;;6246271;28;20419;-84
2023/07/30 12:10:44;;;;;;;;;;;;;;;;;;6245675;28;19918;-87
2023/07/30 12:13:45;;;;;;;;;;;;;;;;;;6245082;28;19935;-85
2023/07/30 12:16:45;;;;;;;;;;;;;;;;;;6245072;28;20649;-86
2023/07/30 12:19:45;;;;;;;;;;;;;;;;;;6244519;28;19909;-87
2023/07/30 12:22:45;;;;;;;;;;;;;;;;;;6244982;28;19932;-84
2023/07/30 12:25:45;;;;;;;;;;;;;;;;;;6246190;28;19905;-86
2023/07/30 12:28:45;;;;;;;;;;;;;;;;;;6244165;28;19927;-87
2023/07/30 12:31:46;;;;;;;;;;;;;;;;;;6244650;28;20393;-86
2023/07/30 12:34:46;;;;;;;;;;;;;;;;;;6245325;28;19909;-87
2023/07/30 12:37:46;;;;;;;;;;;;;;;;;;6245236;28;20016;-87
2023/07/30 12:40:46;;;;;;;;;;;;;;;;;;6241491;28;19909;-87
2023/07/30 12:43:46;;;;;;;;;;;;;;;;;;6242017;28;19941;-86
2023/07/30 12:46:46;;;;;;;;;;;;;;;;;;6245250;28;20024;-84
2023/07/30 12:49:46;;;;;;;;;;;;;;;;;;6244560;28;20417;-87
2023/07/30 12:52:46;;;;;;;;;;;;;;;;;;6244164;28;19920;-84
2023/07/30 12:55:46;;;;;;;;;;;;;;;;;;6238479;28;20028;-84
2023/07/30 12:58:46;;;;;;;;;;;;;;;;;;6257557;28;20681;-87
2023/07/30 13:01:47;;;;;;;;;;;;;;;;;;6243914;28;19916;-88
2023/07/30 13:04:47;;;;;;;;;;;;;;;;;;6239692;28;19925;-85
2023/07/30 13:07:47;;;;;;;;;;;;;;;;;;6244628;28;19909;-84
2023/07/30 13:10:47;;;;;;;;;;;;;;;;;;6242690;28;19924;-84
2023/07/30 13:13:47;;;;;;;;;;;;;;;;;;6244500;28;19973;-84
2023/07/30 13:16:47;;;;;;;;;;;;;;;;;;6244778;28;20374;-85
2023/07/30 13:19:48;;;;;;;;;;;;;;;;;;6240418;28;19905;-84
2023/07/30 13:22:48;;;;;;;;;;;;;;;;;;6238469;28;19905;-87
2023/07/30 13:25:49;;;;;;;;;;;;;;;;;;6247556;28;20343;-74
2023/07/30 13:28:49;;;;;;;;;;;;;;;;;;6243369;28;19980;-73
2023/07/30 13:31:49;;;;;;;;;;;;;;;;;;6243893;28;19916;-73
2023/07/30 13:34:49;;;;;;;;;;;;;;;;;;6235524;28;19920;-74
2023/07/30 13:37:49;;;;;;;;;;;;;;;;;;6241002;28;19948;-73
2023/07/30 13:40:49;;;;;;;;;;;;;;;;;;6234187;28;20008;-73
2023/07/30 13:43:50;;;;;;;;;;;;;;;;;;6239966;28;19909;-73
2023/07/30 13:46:50;;;;;;;;;;;;;;;;;;6243440;28;19916;-74
2023/07/30 13:49:50;;;;;;;;;;;;;;;;;;6238035;28;20405;-73
2023/07/30 13:52:50;;;;;;;;;;;;;;;;;;6238726;28;19920;-74
2023/07/30 13:55:51;;;;;;;;;;;;;;;;;;6243216;28;19911;-73
2023/07/30 13:58:51;;;;;;;;;;;;;;;;;;6237110;28;19909;-74
2023/07/30 14:01:51;;;;;;;;;;;;;;;;;;6243985;28;19935;-73
2023/07/30 14:04:51;;;;;;;;;;;;;;;;;;6234223;28;19925;-87
2023/07/30 14:07:53;;;;;;;;;;;;;;;;;;6238599;28;19928;-86
2023/07/30 14:10:53;;;;;;;;;;;;;;;;;;6241445;28;19927;-83
2023/07/30 14:13:54;;;;;;;;;;;;;;;;;;6244475;28;19908;-83
2023/07/30 14:16:54;;;;;;;;;;;;;;;;;;6248120;28;19909;-84
2023/07/30 14:19:55;;;;;;;;;;;;;;;;;;6240737;28;20079;-85
2023/07/30 14:22:55;;;;;;;;;;;;;;;;;;6242234;28;19913;-85
2023/07/30 14:25:55;;;;;;;;;;;;;;;;;;6243808;28;19952;-74
2023/07/30 14:28:56;;;;;;;;;;;;;;;;;;6245069;28;19948;-73
2023/07/30 14:31:56;;;;;;;;;;;;;;;;;;6239659;28;19913;-73
2023/07/30 14:34:57;;;;;;;;;;;;;;;;;;6231195;28;19912;-88
2023/07/30 14:37:57;;;;;;;;;;;;;;;;;;6231317;28;19910;-86
2023/07/30 14:40:57;;;;;;;;;;;;;;;;;;6231219;28;19909;-85
2023/07/30 14:43:58;;;;;;;;;;;;;;;;;;6237391;28;19909;-85
2023/07/30 14:46:58;;;;;;;;;;;;;;;;;;6243970;28;19909;-84
2023/07/30 14:49:58;;;;;;;;;;;;;;;;;;6246463;28;19963;-84
2023/07/30 14:52:58;;;;;;;;;;;;;;;;;;6242503;28;19938;-86
2023/07/30 14:55:58;;;;;;;;;;;;;;;;;;6247743;28;20247;-74
2023/07/30 14:58:58;;;;;;;;;;;;;;;;;;6238173;28;20774;-73
2023/07/30 15:01:58;;;;;;;;;;;;;;;;;;6237401;28;19909;-73
2023/07/30 15:04:59;;;;;;;;;;;;;;;;;;6237271;28;19917;-73
2023/07/30 15:07:59;;;;;;;;;;;;;;;;;;6247168;28;19908;-73
2023/07/30 15:10:59;;;;;;;;;;;;;;;;;;6244737;28;19921;-73
2023/07/30 15:13:59;;;;;;;;;;;;;;;;;;6245765;28;20000;-74
2023/07/30 15:16:59;;;;;;;;;;;;;;;;;;6243221;28;19916;-74
2023/07/30 15:19:59;;;;;;;;;;;;;;;;;;6242762;28;19908;-73
2023/07/30 15:22:59;;;;;;;;;;;;;;;;;;6244762;28;19909;-74
2023/07/30 15:26:00;;;;;;;;;;;;;;;;;;6242586;28;19913;-74
2023/07/30 15:29:01;;;;;;;;;;;;;;;;;;6246850;28;19909;-73
2023/07/30 15:32:01;;;;;;;;;;;;;;;;;;6246907;28;19921;-73
2023/07/30 15:35:01;;;;;;;;;;;;;;;;;;6238078;28;19932;-73
2023/07/30 15:38:01;;;;;;;;;;;;;;;;;;6237162;28;19955;-73
2023/07/30 15:41:01;;;;;;;;;;;;;;;;;;6237497;28;19909;-73
2023/07/30 15:44:01;;;;;;;;;;;;;;;;;;6245688;28;19909;-73
2023/07/30 15:47:02;;;;;;;;;;;;;;;;;;6245190;28;19993;-73
2023/07/30 15:50:02;;;;;;;;;;;;;;;;;;6242204;28;19912;-73
2023/07/30 15:53:02;;;;;;;;;;;;;;;;;;6243337;28;19916;-73
2023/07/30 15:56:03;;;;;;;;;;;;;;;;;;6249450;28;19908;-90
2023/07/30 15:59:03;;;;;;;;;;;;;;;;;;6249187;28;20340;-86
2023/07/30 16:02:05;;;;;;;;;;;;;;;;;;6255977;28;19939;-87
2023/07/30 16:05:05;;;;;;;;;;;;;;;;;;6244835;28;19925;-86
2023/07/30 16:08:05;;;;;;;;;;;;;;;;;;6240861;28;19940;-86
2023/07/30 16:11:05;;;;;;;;;;;;;;;;;;6245583;28;19924;-83
2023/07/30 16:14:05;;;;;;;;;;;;;;;;;;6243510;28;19908;-86
2023/07/30 16:17:05;;;;;;;;;;;;;;;;;;6247082;28;19913;-88
2023/07/30 16:20:05;;;;;;;;;;;;;;;;;;6245904;28;19949;-86
2023/07/30 16:23:05;;;;;;;;;;;;;;;;;;6247547;28;19912;-88
2023/07/30 16:26:06;;;;;;;;;;;;;;;;;;6250642;28;19948;-86
2023/07/30 16:29:07;;;;;;;;;;;;;;;;;;6238480;28;19909;-88
2023/07/30 16:32:07;;;;;;;;;;;;;;;;;;6245856;28;20004;-87
2023/07/30 16:35:07;;;;;;;;;;;;;;;;;;6246315;28;19912;-87
2023/07/30 16:38:07;;;;;;;;;;;;;;;;;;6246304;28;19913;-87
2023/07/30 16:41:09;;;;;;;;;;;;;;;;;;6244736;28;19905;-86
2023/07/30 16:44:09;;;;;;;;;;;;;;;;;;6243712;28;20465;-86
2023/07/30 16:47:09;;;;;;;;;;;;;;;;;;6244272;28;19924;-87
2023/07/30 16:50:09;;;;;;;;;;;;;;;;;;6249488;28;19920;-88
2023/07/30 16:53:09;;;;;;;;;;;;;;;;;;6245665;28;19913;-87
2023/07/30 16:56:09;;;;;;;;;;;;;;;;;;6246947;28;19917;-88
2023/07/30 16:59:10;;;;;;;;;;;;;;;;;;6243210;28;19919;-77
2023/07/30 17:02:10;;;;;;;;;;;;;;;;;;6245570;28;19910;-87
2023/07/30 17:05:10;;;;;;;;;;;;;;;;;;6242436;28;19917;-74
2023/07/30 17:08:13;;;;;;;;;;;;;;;;;;6240275;28;20035;-74
2023/07/30 17:11:13;;;;;;;;;;;;;;;;;;6238180;28;19960;-74
2023/07/30 17:14:13;;;;;;;;;;;;;;;;;;6237109;28;19911;-75
2023/07/30 17:17:13;;;;;;;;;;;;;;;;;;6237859;28;19948;-75
2023/07/30 17:20:13;;;;;;;;;;;;;;;;;;6241459;28;20084;-75
2023/07/30 17:23:13;;;;;;;;;;;;;;;;;;6243402;28;19909;-75
2023/07/30 17:26:13;;;;;;;;;;;;;;;;;;6248535;28;19913;-75
2023/07/30 17:29:14;;;;;;;;;;;;;;;;;;6239390;28;19952;-75
2023/07/30 17:32:14;;;;;;;;;;;;;;;;;;6235857;28;20407;-75
2023/07/30 17:35:14;;;;;;;;;;;;;;;;;;6245548;28;19909;-89
2023/07/30 17:38:14;;;;;;;;;;;;;;;;;;6248146;28;19917;-86
2023/07/30 17:41:14;;;;;;;;;;;;;;;;;;6246005;28;19999;-89
2023/07/30 17:44:14;;;;;;;;;;;;;;;;;;6248347;28;19916;-87
2023/07/30 17:47:15;;;;;;;;;;;;;;;;;;6240551;28;19917;-84
2023/07/30 17:50:15;;;;;;;;;;;;;;;;;;6238182;28;20304;-86
2023/07/30 17:53:15;;;;;;;;;;;;;;;;;;6249649;28;20032;-85
2023/07/30 17:56:16;;;;;;;;;;;;;;;;;;6249655;28;19916;-85
2023/07/30 17:59:16;;;;;;;;;;;;;;;;;;6236266;28;19940;-90
2023/07/30 18:02:18;;;;;;;;;;;;;;;;;;6245365;28;19935;-85
2023/07/30 18:05:18;;;;;;;;;;;;;;;;;;6243914;28;19927;-87
2023/07/30 18:08:18;;;;;;;;;;;;;;;;;;6244494;28;19909;-88
2023/07/30 18:11:18;;;;;;;;;;;;;;;;;;6245602;28;19920;-82
2023/07/30 18:14:20;;;;;;;;;;;;;;;;;;6236744;28;19909;-75
2023/07/30 18:17:20;;;;;;;;;;;;;;;;;;6242747;28;20657;-75
2023/07/30 18:20:20;;;;;;;;;;;;;;;;;;6235894;28;19920;-74
2023/07/30 18:23:20;;;;;;;;;;;;;;;;;;6242317;28;19917;-75
2023/07/30 18:26:20;;;;;;;;;;;;;;;;;;6245870;28;20016;-75
2023/07/30 18:29:20;;;;;;;;;;;;;;;;;;6231512;28;19974;-75
2023/07/30 18:32:21;;;;;;;;;;;;;;;;;;6241248;28;19912;-75
2023/07/30 18:35:21;;;;;;;;;;;;;;;;;;6243060;28;19909;-75
2023/07/30 18:38:21;;;;;;;;;;;;;;;;;;6242319;28;19913;-75
2023/07/30 18:41:21;;;;;;;;;;;;;;;;;;6246798;28;19975;-75
2023/07/30 18:44:21;;;;;;;;;;;;;;;;;;6240971;28;19948;-77
2023/07/30 18:47:21;;;;;;;;;;;;;;;;;;6243054;28;19909;-75
2023/07/30 18:50:22;;;;;;;;;;;;;;;;;;6237567;28;19905;-75
2023/07/30 18:53:22;;;;;;;;;;;;;;;;;;6243405;28;19909;-74
2023/07/30 18:56:22;;;;;;;;;;;;;;;;;;6245447;28;20012;-74
2023/07/30 18:59:22;;;;;;;;;;;;;;;;;;6244931;28;19992;-74
2023/07/30 19:02:22;;;;;;;;;;;;;;;;;;6238356;28;19916;-74
2023/07/30 19:05:22;;;;;;;;;;;;;;;;;;6232400;28;20379;-74
2023/07/30 19:08:22;;;;;;;;;;;;;;;;;;6242216;28;20478;-73
2023/07/30 19:11:23;;;;;;;;;;;;;;;;;;6234812;28;20039;-74
2023/07/30 19:14:23;;;;;;;;;;;;;;;;;;6245625;28;19940;-74
2023/07/30 19:17:23;;;;;;;;;;;;;;;;;;6237143;28;19905;-74
2023/07/30 19:20:24;;;;;;;;;;;;;;;;;;6244469;28;19920;-74
2023/07/30 19:23:24;;;;;;;;;;;;;;;;;;6243915;28;20000;-74
2023/07/30 19:26:24;;;;;;;;;;;;;;;;;;6253670;28;19959;-88
2023/07/30 19:29:24;;;;;;;;;;;;;;;;;;6247834;28;19920;-86
2023/07/30 19:32:24;;;;;;;;;;;;;;;;;;6254548;28;20378;-86
2023/07/30 19:35:24;;;;;;;;;;;;;;;;;;6249279;28;19917;-89
2023/07/30 19:38:24;;;;;;;;;;;;;;;;;;6247828;28;19920;-90
2023/07/30 19:41:26;;;;;;;;;;;;;;;;;;6253478;28;19927;-90
2023/07/30 19:44:27;;;;;;;;;;;;;;;;;;6248225;28;19955;-88
2023/07/30 19:47:28;;;;;;;;;;;;;;;;;;6255810;28;19966;-90
2023/07/30 19:50:28;;;;;;;;;;;;;;;;;;6250492;28;19995;-90
2023/07/30 19:53:29;;;;;;;;;;;;;;;;;;6241848;28;19913;-91
2023/07/30 19:56:29;;;;;;;;;;;;;;;;;;6238925;28;19905;-73
2023/07/30 19:59:29;;;;;;;;;;;;;;;;;;6245259;28;19928;-73
2023/07/30 20:02:29;;;;;;;;;;;;;;;;;;6244660;28;20031;-73
2023/07/30 20:05:29;;;;;;;;;;;;;;;;;;6248214;28;19913;-80
2023/07/30 20:08:29;;;;;;;;;;;;;;;;;;6252244;28;19912;-85
2023/07/30 20:11:29;;;;;;;;;;;;;;;;;;6244310;28;19924;-89
2023/07/30 20:14:29;;;;;;;;;;;;;;;;;;6243064;28;19911;-87
2023/07/30 20:17:29;;;;;;;;;;;;;;;;;;6245888;28;20414;-87
2023/07/30 20:20:29;;;;;;;;;;;;;;;;;;6244992;28;19920;-89
2023/07/30 20:23:30;;;;;;;;;;;;;;;;;;6239516;28;19916;-89
2023/07/30 20:26:30;;;;;;;;;;;;;;;;;;6246075;28;19909;-83
2023/07/30 20:29:30;;;;;;;;;;;;;;;;;;6241212;28;20008;-83